sensor_id;sensor_type;location;lat;lon;timestamp;pressure;altitude;pressure_sealevel;temperature;humidity
26563;BME280;14217;50.986;5.826;2023-04-02T00:00:36;100253.06;;;19.33;48.33
26563;BME280;14217;50.986;5.826;2023-04-02T00:05:49;100253.84;;;19.35;48.15
26563;BME280;14217;50.986;5.826;2023-04-02T00:10:59;100270.81;;;19.32;48.23
26563;BME280;14217;50.986;5.826;2023-04-02T00:16:05;100269.97;;;19.32;48.08
26563;BME280;14217;50.986;5.826;2023-04-02T00:21:12;100281.53;;;19.30;48.21
26563;BME280;14217;50.986;5.826;2023-04-02T00:26:22;100284.03;;;19.34;48.19
26563;BME280;14217;50.986;5.826;2023-04-02T00:31:24;100296.63;;;19.30;48.30
26563;BME280;14217;50.986;5.826;2023-04-02T00:36:29;100306.28;;;19.31;48.27
26563;BME280;14217;50.986;5.826;2023-04-02T00:41:36;100313.50;;;19.29;48.41
26563;BME280;14217;50.986;5.826;2023-04-02T00:46:41;100317.00;;;19.29;48.24
26563;BME280;14217;50.986;5.826;2023-04-02T00:51:53;100327.63;;;19.29;48.03
26563;BME280;14217;50.986;5.826;2023-04-02T00:56:57;100332.09;;;19.29;47.87
26563;BME280;14217;50.986;5.826;2023-04-02T01:07:24;100352.31;;;19.32;47.82
26563;BME280;14217;50.986;5.826;2023-04-02T01:23:23;100376.22;;;19.32;47.69
26563;BME280;14217;50.986;5.826;2023-04-02T01:33:49;100390.63;;;19.27;47.96
26563;BME280;14217;50.986;5.826;2023-04-02T01:39:04;100393.00;;;19.32;47.73
26563;BME280;14217;50.986;5.826;2023-04-02T01:44:13;100410.06;;;19.28;47.70
26563;BME280;14217;50.986;5.826;2023-04-02T01:49:20;100421.47;;;19.30;47.53
26563;BME280;14217;50.986;5.826;2023-04-02T01:54:24;100425.06;;;19.29;47.49
26563;BME280;14217;50.986;5.826;2023-04-02T01:59:26;100429.50;;;19.28;47.67
26563;BME280;14217;50.986;5.826;2023-04-02T02:04:30;100439.34;;;19.26;47.30
26563;BME280;14217;50.986;5.826;2023-04-02T02:09:34;100447.25;;;19.28;47.25
26563;BME280;14217;50.986;5.826;2023-04-02T02:14:36;100466.53;;;19.32;47.39
26563;BME280;14217;50.986;5.826;2023-04-02T02:19:45;100474.06;;;19.23;47.54
26563;BME280;14217;50.986;5.826;2023-04-02T02:24:48;100474.66;;;19.28;47.16
26563;BME280;14217;50.986;5.826;2023-04-02T02:29:57;100494.19;;;19.27;47.43
26563;BME280;14217;50.986;5.826;2023-04-02T02:35:30;100499.66;;;19.24;47.14
26563;BME280;14217;50.986;5.826;2023-04-02T02:40:42;100511.00;;;19.28;47.45
26563;BME280;14217;50.986;5.826;2023-04-02T02:45:46;100515.28;;;19.30;47.17
26563;BME280;14217;50.986;5.826;2023-04-02T02:50:50;100524.28;;;19.28;47.28
26563;BME280;14217;50.986;5.826;2023-04-02T02:55:56;100540.28;;;19.26;47.20
26563;BME280;14217;50.986;5.826;2023-04-02T03:01:00;100549.91;;;19.29;47.16
26563;BME280;14217;50.986;5.826;2023-04-02T03:06:06;100560.69;;;19.26;47.09
26563;BME280;14217;50.986;5.826;2023-04-02T03:11:27;100559.91;;;19.24;47.42
26563;BME280;14217;50.986;5.826;2023-04-02T03:16:37;100571.25;;;19.27;47.34
26563;BME280;14217;50.986;5.826;2023-04-02T03:21:50;100583.72;;;19.25;46.99
26563;BME280;14217;50.986;5.826;2023-04-02T03:27:25;100588.25;;;19.23;47.06
26563;BME280;14217;50.986;5.826;2023-04-02T03:32:31;100609.34;;;19.26;46.96
26563;BME280;14217;50.986;5.826;2023-04-02T03:37:44;100613.97;;;19.23;47.30
26563;BME280;14217;50.986;5.826;2023-04-02T03:43:02;100623.59;;;19.25;47.09
26563;BME280;14217;50.986;5.826;2023-04-02T03:48:32;100642.19;;;19.25;46.93
26563;BME280;14217;50.986;5.826;2023-04-02T03:53:38;100650.22;;;19.24;47.16
26563;BME280;14217;50.986;5.826;2023-04-02T03:58:44;100663.41;;;19.25;46.81
26563;BME280;14217;50.986;5.826;2023-04-02T04:03:53;100674.06;;;19.25;46.89
26563;BME280;14217;50.986;5.826;2023-04-02T04:14:17;100688.13;;;19.27;46.69
26563;BME280;14217;50.986;5.826;2023-04-02T04:19:38;100697.25;;;19.22;46.83
26563;BME280;14217;50.986;5.826;2023-04-02T04:24:42;100706.84;;;19.24;46.81
26563;BME280;14217;50.986;5.826;2023-04-02T04:30:02;100718.41;;;19.23;46.57
26563;BME280;14217;50.986;5.826;2023-04-02T04:35:16;100724.75;;;19.21;46.81
26563;BME280;14217;50.986;5.826;2023-04-02T04:40:24;100741.47;;;19.23;46.99
26563;BME280;14217;50.986;5.826;2023-04-02T04:45:59;100762.00;;;19.19;46.84
26563;BME280;14217;50.986;5.826;2023-04-02T04:51:07;100769.81;;;19.22;46.48
26563;BME280;14217;50.986;5.826;2023-04-02T04:56:11;100778.78;;;19.20;46.65
26563;BME280;14217;50.986;5.826;2023-04-02T05:07:20;100812.41;;;19.21;46.70
26563;BME280;14217;50.986;5.826;2023-04-02T05:17:16;100830.09;;;19.20;46.31
26563;BME280;14217;50.986;5.826;2023-04-02T05:22:47;100840.91;;;19.17;46.38
26563;BME280;14217;50.986;5.826;2023-04-02T05:28:24;100850.66;;;19.17;46.49
26563;BME280;14217;50.986;5.826;2023-04-02T05:33:33;100860.28;;;19.19;46.51
26563;BME280;14217;50.986;5.826;2023-04-02T05:38:38;100862.09;;;19.19;46.42
26563;BME280;14217;50.986;5.826;2023-04-02T05:43:44;100878.16;;;19.16;46.53
26563;BME280;14217;50.986;5.826;2023-04-02T05:48:51;100882.66;;;19.14;46.74
26563;BME280;14217;50.986;5.826;2023-04-02T05:53:59;100901.94;;;19.19;46.30
26563;BME280;14217;50.986;5.826;2023-04-02T06:04:29;100919.84;;;19.14;46.40
26563;BME280;14217;50.986;5.826;2023-04-02T06:14:56;100936.63;;;19.14;46.25
26563;BME280;14217;50.986;5.826;2023-04-02T06:19:59;100957.75;;;19.17;45.90
26563;BME280;14217;50.986;5.826;2023-04-02T06:25:42;100969.50;;;19.12;46.18
26563;BME280;14217;50.986;5.826;2023-04-02T06:30:46;100979.13;;;19.14;45.83
26563;BME280;14217;50.986;5.826;2023-04-02T06:35:49;100989.06;;;19.11;46.12
26563;BME280;14217;50.986;5.826;2023-04-02T06:40:55;101006.84;;;19.08;46.33
26563;BME280;14217;50.986;5.826;2023-04-02T06:46:04;101008.44;;;19.13;46.05
26563;BME280;14217;50.986;5.826;2023-04-02T06:51:12;101021.72;;;19.13;46.05
26563;BME280;14217;50.986;5.826;2023-04-02T07:02:03;101044.09;;;19.07;45.96
26563;BME280;14217;50.986;5.826;2023-04-02T07:07:07;101050.19;;;19.09;46.07
26563;BME280;14217;50.986;5.826;2023-04-02T07:12:12;101072.44;;;19.06;45.98
26563;BME280;14217;50.986;5.826;2023-04-02T07:17:15;101080.47;;;19.05;45.89
26563;BME280;14217;50.986;5.826;2023-04-02T07:22:19;101094.44;;;19.10;45.88
26563;BME280;14217;50.986;5.826;2023-04-02T07:27:21;101105.31;;;19.04;45.78
26563;BME280;14217;50.986;5.826;2023-04-02T07:32:23;101121.06;;;19.08;45.53
26563;BME280;14217;50.986;5.826;2023-04-02T07:37:25;101129.88;;;19.09;45.59
26563;BME280;14217;50.986;5.826;2023-04-02T07:42:27;101131.63;;;19.10;45.66
26563;BME280;14217;50.986;5.826;2023-04-02T07:47:29;101141.34;;;19.09;45.77
26563;BME280;14217;50.986;5.826;2023-04-02T07:52:31;101157.44;;;19.06;45.65
26563;BME280;14217;50.986;5.826;2023-04-02T07:57:37;101160.84;;;19.10;45.54
26563;BME280;14217;50.986;5.826;2023-04-02T08:02:40;101172.50;;;19.06;45.42
26563;BME280;14217;50.986;5.826;2023-04-02T08:07:42;101175.53;;;18.75;46.09
26563;BME280;14217;50.986;5.826;2023-04-02T08:12:44;101183.81;;;18.65;45.33
26563;BME280;14217;50.986;5.826;2023-04-02T08:17:46;101199.50;;;18.72;43.95
26563;BME280;14217;50.986;5.826;2023-04-02T08:22:49;101210.28;;;18.68;43.43
26563;BME280;14217;50.986;5.826;2023-04-02T08:27:52;101223.16;;;18.78;43.02
26563;BME280;14217;50.986;5.826;2023-04-02T08:32:54;101234.78;;;18.75;42.92
26563;BME280;14217;50.986;5.826;2023-04-02T08:37:56;101244.81;;;18.67;42.60
26563;BME280;14217;50.986;5.826;2023-04-02T08:48:19;101261.16;;;18.56;41.11
26563;BME280;14217;50.986;5.826;2023-04-02T08:53:28;101271.72;;;18.58;40.41
26563;BME280;14217;50.986;5.826;2023-04-02T08:58:38;101284.88;;;18.61;40.75
26563;BME280;14217;50.986;5.826;2023-04-02T09:03:46;101295.97;;;18.72;40.95
26563;BME280;14217;50.986;5.826;2023-04-02T09:08:50;101306.06;;;18.86;41.36
26563;BME280;14217;50.986;5.826;2023-04-02T09:13:57;101306.03;;;18.87;41.57
26563;BME280;14217;50.986;5.826;2023-04-02T09:18:59;101320.09;;;18.89;40.76
26563;BME280;14217;50.986;5.826;2023-04-02T09:24:02;101330.28;;;18.77;41.53
26563;BME280;14217;50.986;5.826;2023-04-02T09:29:26;101341.66;;;18.80;41.27
26563;BME280;14217;50.986;5.826;2023-04-02T09:34:34;101352.53;;;18.74;41.53
26563;BME280;14217;50.986;5.826;2023-04-02T09:39:36;101361.78;;;18.87;41.36
26563;BME280;14217;50.986;5.826;2023-04-02T09:44:38;101370.88;;;18.80;41.42
26563;BME280;14217;50.986;5.826;2023-04-02T09:49:40;101380.53;;;18.83;41.62
26563;BME280;14217;50.986;5.826;2023-04-02T09:54:42;101388.38;;;18.86;41.70
26563;BME280;14217;50.986;5.826;2023-04-02T09:59:45;101396.38;;;18.84;41.57
26563;BME280;14217;50.986;5.826;2023-04-02T10:04:48;101406.09;;;18.85;41.50
26563;BME280;14217;50.986;5.826;2023-04-02T10:10:12;101409.66;;;18.84;41.75
26563;BME280;14217;50.986;5.826;2023-04-02T10:15:21;101416.91;;;18.81;41.68
26563;BME280;14217;50.986;5.826;2023-04-02T10:20:27;101422.13;;;18.82;41.56
26563;BME280;14217;50.986;5.826;2023-04-02T10:25:40;101439.75;;;18.85;41.67
26563;BME280;14217;50.986;5.826;2023-04-02T10:30:57;101447.00;;;18.80;41.57
26563;BME280;14217;50.986;5.826;2023-04-02T10:36:15;101452.22;;;18.83;41.70
26563;BME280;14217;50.986;5.826;2023-04-02T10:52:32;101472.84;;;18.75;41.09
26563;BME280;14217;50.986;5.826;2023-04-02T10:57:39;101471.84;;;18.79;40.72
26563;BME280;14217;50.986;5.826;2023-04-02T11:08:17;101500.97;;;18.80;40.95
26563;BME280;14217;50.986;5.826;2023-04-02T11:29:36;101524.19;;;18.74;41.10
26563;BME280;14217;50.986;5.826;2023-04-02T12:01:27;101571.16;;;18.72;40.85
26563;BME280;14217;50.986;5.826;2023-04-02T12:11:53;101579.94;;;18.74;40.70
26563;BME280;14217;50.986;5.826;2023-04-02T12:16:57;101581.78;;;18.72;40.74
26563;BME280;14217;50.986;5.826;2023-04-02T12:22:00;101594.22;;;18.69;41.01
26563;BME280;14217;50.986;5.826;2023-04-02T12:27:18;101594.31;;;18.68;40.89
26563;BME280;14217;50.986;5.826;2023-04-02T12:32:25;101603.97;;;18.69;40.84
26563;BME280;14217;50.986;5.826;2023-04-02T12:37:30;101625.22;;;18.69;40.86
26563;BME280;14217;50.986;5.826;2023-04-02T12:42:35;101620.03;;;18.66;40.88
26563;BME280;14217;50.986;5.826;2023-04-02T12:47:43;101618.28;;;18.65;40.95
26563;BME280;14217;50.986;5.826;2023-04-02T12:52:48;101627.88;;;18.69;40.80
26563;BME280;14217;50.986;5.826;2023-04-02T12:57:58;101629.66;;;18.68;40.81
26563;BME280;14217;50.986;5.826;2023-04-02T13:08:05;101634.13;;;18.68;40.70
26563;BME280;14217;50.986;5.826;2023-04-02T13:13:16;101645.63;;;18.67;40.60
26563;BME280;14217;50.986;5.826;2023-04-02T13:18:21;101647.31;;;18.69;40.64
26563;BME280;14217;50.986;5.826;2023-04-02T13:28:33;101651.06;;;18.64;40.80
26563;BME280;14217;50.986;5.826;2023-04-02T13:33:35;101662.59;;;18.63;40.70
26563;BME280;14217;50.986;5.826;2023-04-02T13:38:37;101674.94;;;18.64;40.69
26563;BME280;14217;50.986;5.826;2023-04-02T13:43:39;101671.38;;;18.65;40.55
26563;BME280;14217;50.986;5.826;2023-04-02T13:48:42;101680.16;;;18.67;41.03
26563;BME280;14217;50.986;5.826;2023-04-02T13:53:46;101691.06;;;18.58;40.56
26563;BME280;14217;50.986;5.826;2023-04-02T13:58:51;101690.13;;;18.59;40.38
26563;BME280;14217;50.986;5.826;2023-04-02T14:03:53;101704.22;;;18.61;40.34
26563;BME280;14217;50.986;5.826;2023-04-02T14:09:03;101713.16;;;18.58;40.36
26563;BME280;14217;50.986;5.826;2023-04-02T14:14:58;101715.78;;;18.60;40.43
26563;BME280;14217;50.986;5.826;2023-04-02T14:19:53;101715.78;;;18.60;40.08
26563;BME280;14217;50.986;5.826;2023-04-02T14:25:31;101727.34;;;18.57;40.10
26563;BME280;14217;50.986;5.826;2023-04-02T14:41:33;101738.03;;;18.56;40.24
26563;BME280;14217;50.986;5.826;2023-04-02T14:46:39;101732.72;;;18.56;40.24
26563;BME280;14217;50.986;5.826;2023-04-02T14:52:02;101745.97;;;18.56;40.32
26563;BME280;14217;50.986;5.826;2023-04-02T14:57:28;101742.41;;;18.57;40.53
26563;BME280;14217;50.986;5.826;2023-04-02T15:02:54;101763.63;;;18.57;40.48
26563;BME280;14217;50.986;5.826;2023-04-02T15:08:03;101765.47;;;18.55;40.39
26563;BME280;14217;50.986;5.826;2023-04-02T15:13:11;101761.91;;;18.56;40.11
26563;BME280;14217;50.986;5.826;2023-04-02T15:18:16;101769.06;;;18.54;39.87
26563;BME280;14217;50.986;5.826;2023-04-02T15:34:13;101790.75;;;18.68;39.69
26563;BME280;14217;50.986;5.826;2023-04-02T15:39:39;101795.03;;;18.72;39.40
26563;BME280;14217;50.986;5.826;2023-04-02T15:45:11;101802.19;;;18.70;39.27
26563;BME280;14217;50.986;5.826;2023-04-02T16:12:18;101835.91;;;18.66;39.54
26563;BME280;14217;50.986;5.826;2023-04-02T16:17:27;101837.69;;;18.66;39.47
26563;BME280;14217;50.986;5.826;2023-04-02T16:22:35;101836.97;;;18.59;39.22
26563;BME280;14217;50.986;5.826;2023-04-02T16:27:45;101835.22;;;18.60;39.31
26563;BME280;14217;50.986;5.826;2023-04-02T16:38:23;101844.13;;;18.57;39.37
26563;BME280;14217;50.986;5.826;2023-04-02T16:49:08;101851.97;;;18.62;39.42
26563;BME280;14217;50.986;5.826;2023-04-02T17:05:32;101890.19;;;18.56;39.80
26563;BME280;14217;50.986;5.826;2023-04-02T17:10:45;101892.81;;;18.23;40.17
26563;BME280;14217;50.986;5.826;2023-04-02T17:16:16;101898.88;;;18.61;39.71
26563;BME280;14217;50.986;5.826;2023-04-02T17:21:23;101905.78;;;18.67;39.57
26563;BME280;14217;50.986;5.826;2023-04-02T17:26:31;101914.03;;;18.58;40.08
26563;BME280;14217;50.986;5.826;2023-04-02T17:31:35;101912.94;;;18.65;40.21
26563;BME280;14217;50.986;5.826;2023-04-02T17:37:14;101927.25;;;18.59;40.29
26563;BME280;14217;50.986;5.826;2023-04-02T17:53:26;101940.47;;;18.61;40.79
26563;BME280;14217;50.986;5.826;2023-04-02T18:04:29;101953.75;;;18.61;41.03
26563;BME280;14217;50.986;5.826;2023-04-02T18:09:44;101968.69;;;18.65;41.01
26563;BME280;14217;50.986;5.826;2023-04-02T18:15:00;101975.63;;;18.71;40.96
26563;BME280;14217;50.986;5.826;2023-04-02T18:41:40;102014.66;;;18.67;41.24
26563;BME280;14217;50.986;5.826;2023-04-02T18:52:28;102033.19;;;18.68;41.84
26563;BME280;14217;50.986;5.826;2023-04-02T18:57:32;102044.69;;;18.69;42.16
26563;BME280;14217;50.986;5.826;2023-04-02T19:02:39;102054.50;;;18.65;42.74
26563;BME280;14217;50.986;5.826;2023-04-02T19:07:43;102051.78;;;18.68;43.03
26563;BME280;14217;50.986;5.826;2023-04-02T19:12:47;102064.84;;;18.76;42.37
26563;BME280;14217;50.986;5.826;2023-04-02T19:23:46;102080.88;;;18.72;42.83
26563;BME280;14217;50.986;5.826;2023-04-02T19:29:05;102087.97;;;18.73;42.68
26563;BME280;14217;50.986;5.826;2023-04-02T19:44:38;102086.31;;;18.67;42.84
26563;BME280;14217;50.986;5.826;2023-04-02T19:49:41;102088.13;;;18.66;42.88
26563;BME280;14217;50.986;5.826;2023-04-02T19:54:43;102093.44;;;18.66;42.96
26563;BME280;14217;50.986;5.826;2023-04-02T19:59:45;102103.09;;;18.69;42.76
26563;BME280;14217;50.986;5.826;2023-04-02T20:04:47;102109.34;;;18.66;42.78
26563;BME280;14217;50.986;5.826;2023-04-02T20:09:49;102106.59;;;18.71;42.64
26563;BME280;14217;50.986;5.826;2023-04-02T20:14:51;102113.81;;;18.66;42.76
26563;BME280;14217;50.986;5.826;2023-04-02T20:19:53;102117.28;;;18.68;42.85
26563;BME280;14217;50.986;5.826;2023-04-02T20:24:55;102119.97;;;18.66;42.55
26563;BME280;14217;50.986;5.826;2023-04-02T20:29:57;102115.50;;;18.68;42.56
26563;BME280;14217;50.986;5.826;2023-04-02T20:35:00;102119.88;;;18.69;42.62
26563;BME280;14217;50.986;5.826;2023-04-02T20:40:02;102123.47;;;18.68;42.81
26563;BME280;14217;50.986;5.826;2023-04-02T20:45:04;102132.56;;;18.58;42.86
26563;BME280;14217;50.986;5.826;2023-04-02T20:50:09;102136.06;;;18.60;49.25
26563;BME280;14217;50.986;5.826;2023-04-02T20:55:11;102141.59;;;18.51;49.00
26563;BME280;14217;50.986;5.826;2023-04-02T21:00:13;102142.59;;;18.45;48.83
26563;BME280;14217;50.986;5.826;2023-04-02T21:05:16;102148.06;;;18.38;48.38
26563;BME280;14217;50.986;5.826;2023-04-02T21:10:18;102157.03;;;18.71;47.08
26563;BME280;14217;50.986;5.826;2023-04-02T21:15:20;102162.28;;;18.74;46.59
26563;BME280;14217;50.986;5.826;2023-04-02T21:20:22;102168.41;;;18.76;46.45
26563;BME280;14217;50.986;5.826;2023-04-02T21:25:23;102180.22;;;18.63;46.53
26563;BME280;14217;50.986;5.826;2023-04-02T21:30:25;102184.38;;;18.75;46.34
26563;BME280;14217;50.986;5.826;2023-04-02T21:35:28;102179.97;;;18.74;46.14
26563;BME280;14217;50.986;5.826;2023-04-02T21:40:30;102179.09;;;18.73;45.95
26563;BME280;14217;50.986;5.826;2023-04-02T21:45:32;102175.63;;;18.71;45.41
26563;BME280;14217;50.986;5.826;2023-04-02T21:50:34;102176.53;;;18.70;45.60
26563;BME280;14217;50.986;5.826;2023-04-02T21:55:37;102183.66;;;18.68;45.03
26563;BME280;14217;50.986;5.826;2023-04-02T22:00:39;102188.97;;;18.68;45.17
26563;BME280;14217;50.986;5.826;2023-04-02T22:05:41;102192.59;;;18.64;45.08
26563;BME280;14217;50.986;5.826;2023-04-02T22:10:43;102198.81;;;18.63;44.92
26563;BME280;14217;50.986;5.826;2023-04-02T22:15:45;102201.41;;;18.66;44.75
26563;BME280;14217;50.986;5.826;2023-04-02T22:20:52;102199.69;;;18.63;44.45
26563;BME280;14217;50.986;5.826;2023-04-02T22:25:56;102200.56;;;18.64;44.58
26563;BME280;14217;50.986;5.826;2023-04-02T22:31:12;102201.47;;;18.63;44.54
26563;BME280;14217;50.986;5.826;2023-04-02T22:36:15;102204.97;;;18.63;44.50
26563;BME280;14217;50.986;5.826;2023-04-02T22:41:19;102204.16;;;18.61;44.45
26563;BME280;14217;50.986;5.826;2023-04-02T22:46:24;102211.28;;;18.59;44.22
26563;BME280;14217;50.986;5.826;2023-04-02T22:51:27;102217.41;;;18.63;43.99
26563;BME280;14217;50.986;5.826;2023-04-02T22:56:30;102216.66;;;18.58;44.18
26563;BME280;14217;50.986;5.826;2023-04-02T23:01:34;102217.50;;;18.58;43.97
26563;BME280;14217;50.986;5.826;2023-04-02T23:06:37;102210.50;;;18.56;44.09
26563;BME280;14217;50.986;5.826;2023-04-02T23:11:39;102224.63;;;18.56;43.98
26563;BME280;14217;50.986;5.826;2023-04-02T23:16:41;102217.41;;;18.61;43.88
26563;BME280;14217;50.986;5.826;2023-04-02T23:21:43;102229.06;;;18.56;43.93
26563;BME280;14217;50.986;5.826;2023-04-02T23:26:45;102220.13;;;18.60;43.76
26563;BME280;14217;50.986;5.826;2023-04-02T23:31:47;102221.88;;;18.61;43.60
26563;BME280;14217;50.986;5.826;2023-04-02T23:36:49;102234.31;;;18.59;43.66
26563;BME280;14217;50.986;5.826;2023-04-02T23:41:51;102222.91;;;18.55;43.96
26563;BME280;14217;50.986;5.826;2023-04-02T23:46:53;102226.38;;;18.57;43.60
26563;BME280;14217;50.986;5.826;2023-04-02T23:51:55;102234.31;;;18.59;43.84
26563;BME280;14217;50.986;5.826;2023-04-02T23:56:57;102225.50;;;18.57;43.66
